sensor_id;sensor_type;location;lat;lon;timestamp;P1;durP1;ratioP1;P2;durP2;ratioP2
611;SDS011;293;53.888;11.464;2022-12-22T00:00:12;36.97;;;21.90;;
611;SDS011;293;53.888;11.464;2022-12-22T00:02:57;33.67;;;21.80;;
611;SDS011;293;53.888;11.464;2022-12-22T00:05:41;36.60;;;22.10;;
611;SDS011;293;53.888;11.464;2022-12-22T00:08:26;34.93;;;21.30;;
611;SDS011;293;53.888;11.464;2022-12-22T00:11:11;45.10;;;19.60;;
611;SDS011;293;53.888;11.464;2022-12-22T00:13:55;40.95;;;23.98;;
611;SDS011;293;53.888;11.464;2022-12-22T00:16:40;38.90;;;21.85;;
611;SDS011;293;53.888;11.464;2022-12-22T00:19:25;34.73;;;22.60;;
611;SDS011;293;53.888;11.464;2022-12-22T00:22:12;37.80;;;21.80;;
611;SDS011;293;53.888;11.464;2022-12-22T00:24:59;40.77;;;23.80;;
611;SDS011;293;53.888;11.464;2022-12-22T00:27:44;31.55;;;19.75;;
611;SDS011;293;53.888;11.464;2022-12-22T00:30:28;32.78;;;18.80;;
611;SDS011;293;53.888;11.464;2022-12-22T00:33:13;29.75;;;19.58;;
611;SDS011;293;53.888;11.464;2022-12-22T00:35:59;31.33;;;21.13;;
611;SDS011;293;53.888;11.464;2022-12-22T00:38:44;29.33;;;17.83;;
611;SDS011;293;53.888;11.464;2022-12-22T00:41:31;31.47;;;18.07;;
611;SDS011;293;53.888;11.464;2022-12-22T00:44:15;41.07;;;20.17;;
611;SDS011;293;53.888;11.464;2022-12-22T00:46:59;34.63;;;19.20;;
611;SDS011;293;53.888;11.464;2022-12-22T00:49:45;25.50;;;17.37;;
611;SDS011;293;53.888;11.464;2022-12-22T00:52:30;30.40;;;18.10;;
611;SDS011;293;53.888;11.464;2022-12-22T00:55:18;35.33;;;19.83;;
611;SDS011;293;53.888;11.464;2022-12-22T00:58:11;32.97;;;17.37;;
611;SDS011;293;53.888;11.464;2022-12-22T01:00:59;32.80;;;18.70;;
611;SDS011;293;53.888;11.464;2022-12-22T01:03:43;38.33;;;18.30;;
611;SDS011;293;53.888;11.464;2022-12-22T01:06:29;35.03;;;19.00;;
611;SDS011;293;53.888;11.464;2022-12-22T01:09:14;34.28;;;18.70;;
611;SDS011;293;53.888;11.464;2022-12-22T01:11:59;31.37;;;17.90;;
611;SDS011;293;53.888;11.464;2022-12-22T01:14:46;30.77;;;17.63;;
611;SDS011;293;53.888;11.464;2022-12-22T01:17:31;24.80;;;16.40;;
611;SDS011;293;53.888;11.464;2022-12-22T01:20:16;28.97;;;17.53;;
611;SDS011;293;53.888;11.464;2022-12-22T01:23:00;29.57;;;16.13;;
611;SDS011;293;53.888;11.464;2022-12-22T01:25:44;26.13;;;16.43;;
611;SDS011;293;53.888;11.464;2022-12-22T01:28:28;28.37;;;17.60;;
611;SDS011;293;53.888;11.464;2022-12-22T01:31:16;34.10;;;18.73;;
611;SDS011;293;53.888;11.464;2022-12-22T01:34:04;26.50;;;16.87;;
611;SDS011;293;53.888;11.464;2022-12-22T01:36:48;30.55;;;16.13;;
611;SDS011;293;53.888;11.464;2022-12-22T01:39:32;24.90;;;14.87;;
611;SDS011;293;53.888;11.464;2022-12-22T01:42:16;32.23;;;15.80;;
611;SDS011;293;53.888;11.464;2022-12-22T01:45:01;20.33;;;13.10;;
611;SDS011;293;53.888;11.464;2022-12-22T01:48:00;31.50;;;15.70;;
611;SDS011;293;53.888;11.464;2022-12-22T01:50:44;27.23;;;14.23;;
611;SDS011;293;53.888;11.464;2022-12-22T01:53:28;27.63;;;16.65;;
611;SDS011;293;53.888;11.464;2022-12-22T01:56:13;26.67;;;15.98;;
611;SDS011;293;53.888;11.464;2022-12-22T01:58:58;20.97;;;15.23;;
611;SDS011;293;53.888;11.464;2022-12-22T02:01:45;29.67;;;16.13;;
611;SDS011;293;53.888;11.464;2022-12-22T02:04:31;24.97;;;15.53;;
611;SDS011;293;53.888;11.464;2022-12-22T02:07:23;27.43;;;15.67;;
611;SDS011;293;53.888;11.464;2022-12-22T02:10:28;31.03;;;15.47;;
611;SDS011;293;53.888;11.464;2022-12-22T02:13:23;23.00;;;14.70;;
611;SDS011;293;53.888;11.464;2022-12-22T02:16:13;27.53;;;15.37;;
611;SDS011;293;53.888;11.464;2022-12-22T02:19:06;25.47;;;15.13;;
611;SDS011;293;53.888;11.464;2022-12-22T02:22:00;24.70;;;14.50;;
611;SDS011;293;53.888;11.464;2022-12-22T02:24:56;22.80;;;13.87;;
611;SDS011;293;53.888;11.464;2022-12-22T02:27:46;29.70;;;16.90;;
611;SDS011;293;53.888;11.464;2022-12-22T02:30:32;24.42;;;15.15;;
611;SDS011;293;53.888;11.464;2022-12-22T02:33:18;27.10;;;16.07;;
611;SDS011;293;53.888;11.464;2022-12-22T02:36:04;23.93;;;15.40;;
611;SDS011;293;53.888;11.464;2022-12-22T02:38:59;24.50;;;13.80;;
611;SDS011;293;53.888;11.464;2022-12-22T02:41:55;22.10;;;15.17;;
611;SDS011;293;53.888;11.464;2022-12-22T02:44:52;23.27;;;15.30;;
611;SDS011;293;53.888;11.464;2022-12-22T02:47:46;25.53;;;15.40;;
611;SDS011;293;53.888;11.464;2022-12-22T02:50:36;23.10;;;13.70;;
611;SDS011;293;53.888;11.464;2022-12-22T02:53:23;26.67;;;14.17;;
611;SDS011;293;53.888;11.464;2022-12-22T02:56:09;23.43;;;14.47;;
611;SDS011;293;53.888;11.464;2022-12-22T02:58:54;23.55;;;15.63;;
611;SDS011;293;53.888;11.464;2022-12-22T03:01:42;24.90;;;14.90;;
611;SDS011;293;53.888;11.464;2022-12-22T03:04:28;20.03;;;14.87;;
611;SDS011;293;53.888;11.464;2022-12-22T03:07:12;25.00;;;15.03;;
611;SDS011;293;53.888;11.464;2022-12-22T03:09:57;28.00;;;15.57;;
611;SDS011;293;53.888;11.464;2022-12-22T03:12:41;26.30;;;14.77;;
611;SDS011;293;53.888;11.464;2022-12-22T03:15:25;27.20;;;14.60;;
611;SDS011;293;53.888;11.464;2022-12-22T03:18:11;20.63;;;15.17;;
611;SDS011;293;53.888;11.464;2022-12-22T03:20:56;23.47;;;15.70;;
611;SDS011;293;53.888;11.464;2022-12-22T03:23:41;23.73;;;15.97;;
611;SDS011;293;53.888;11.464;2022-12-22T03:26:27;22.10;;;14.50;;
611;SDS011;293;53.888;11.464;2022-12-22T03:28:54;23.87;;;14.53;;
611;SDS011;293;53.888;11.464;2022-12-22T03:31:21;27.27;;;15.30;;
611;SDS011;293;53.888;11.464;2022-12-22T03:33:49;23.57;;;14.20;;
611;SDS011;293;53.888;11.464;2022-12-22T03:36:16;18.80;;;13.90;;
611;SDS011;293;53.888;11.464;2022-12-22T03:38:43;24.83;;;15.80;;
611;SDS011;293;53.888;11.464;2022-12-22T03:41:10;20.87;;;13.40;;
611;SDS011;293;53.888;11.464;2022-12-22T03:43:58;25.17;;;15.90;;
611;SDS011;293;53.888;11.464;2022-12-22T03:46:38;23.73;;;15.67;;
611;SDS011;293;53.888;11.464;2022-12-22T03:49:07;20.70;;;13.50;;
611;SDS011;293;53.888;11.464;2022-12-22T03:51:37;23.43;;;14.60;;
611;SDS011;293;53.888;11.464;2022-12-22T03:54:06;21.20;;;12.50;;
611;SDS011;293;53.888;11.464;2022-12-22T03:56:34;21.87;;;14.60;;
611;SDS011;293;53.888;11.464;2022-12-22T03:59:02;17.10;;;13.47;;
611;SDS011;293;53.888;11.464;2022-12-22T04:01:29;23.00;;;15.50;;
611;SDS011;293;53.888;11.464;2022-12-22T04:03:57;25.77;;;15.13;;
611;SDS011;293;53.888;11.464;2022-12-22T04:06:25;26.57;;;15.00;;
611;SDS011;293;53.888;11.464;2022-12-22T04:08:52;25.90;;;15.87;;
611;SDS011;293;53.888;11.464;2022-12-22T04:11:19;22.03;;;15.20;;
611;SDS011;293;53.888;11.464;2022-12-22T04:14:04;22.00;;;14.30;;
611;SDS011;293;53.888;11.464;2022-12-22T04:16:30;20.47;;;13.73;;
611;SDS011;293;53.888;11.464;2022-12-22T04:18:57;22.93;;;12.77;;
611;SDS011;293;53.888;11.464;2022-12-22T04:21:26;27.07;;;15.87;;
611;SDS011;293;53.888;11.464;2022-12-22T04:23:53;23.07;;;14.87;;
611;SDS011;293;53.888;11.464;2022-12-22T04:26:20;24.77;;;15.27;;
611;SDS011;293;53.888;11.464;2022-12-22T04:28:48;23.20;;;15.60;;
611;SDS011;293;53.888;11.464;2022-12-22T04:31:15;23.03;;;15.10;;
611;SDS011;293;53.888;11.464;2022-12-22T04:33:43;25.03;;;16.73;;
611;SDS011;293;53.888;11.464;2022-12-22T04:36:09;23.07;;;13.60;;
611;SDS011;293;53.888;11.464;2022-12-22T04:38:38;26.60;;;16.03;;
611;SDS011;293;53.888;11.464;2022-12-22T04:41:05;19.43;;;12.80;;
611;SDS011;293;53.888;11.464;2022-12-22T04:43:32;21.97;;;15.40;;
611;SDS011;293;53.888;11.464;2022-12-22T04:46:00;21.13;;;14.33;;
611;SDS011;293;53.888;11.464;2022-12-22T04:48:27;22.60;;;14.73;;
611;SDS011;293;53.888;11.464;2022-12-22T04:50:55;22.67;;;15.87;;
611;SDS011;293;53.888;11.464;2022-12-22T04:53:27;25.03;;;16.30;;
611;SDS011;293;53.888;11.464;2022-12-22T04:55:57;24.77;;;15.33;;
611;SDS011;293;53.888;11.464;2022-12-22T04:58:25;24.77;;;14.00;;
611;SDS011;293;53.888;11.464;2022-12-22T05:00:53;22.00;;;14.63;;
611;SDS011;293;53.888;11.464;2022-12-22T05:03:20;21.10;;;14.90;;
611;SDS011;293;53.888;11.464;2022-12-22T05:05:47;28.57;;;17.30;;
611;SDS011;293;53.888;11.464;2022-12-22T05:08:14;23.33;;;16.03;;
611;SDS011;293;53.888;11.464;2022-12-22T05:10:41;20.33;;;13.90;;
611;SDS011;293;53.888;11.464;2022-12-22T05:13:09;26.50;;;16.27;;
611;SDS011;293;53.888;11.464;2022-12-22T05:15:36;27.90;;;16.73;;
611;SDS011;293;53.888;11.464;2022-12-22T05:18:03;24.53;;;15.40;;
611;SDS011;293;53.888;11.464;2022-12-22T05:20:30;23.63;;;14.90;;
611;SDS011;293;53.888;11.464;2022-12-22T05:22:58;26.47;;;16.17;;
611;SDS011;293;53.888;11.464;2022-12-22T05:25:24;27.97;;;16.07;;
611;SDS011;293;53.888;11.464;2022-12-22T05:27:51;24.00;;;14.63;;
611;SDS011;293;53.888;11.464;2022-12-22T05:30:20;36.70;;;18.53;;
611;SDS011;293;53.888;11.464;2022-12-22T05:32:47;27.17;;;18.53;;
611;SDS011;293;53.888;11.464;2022-12-22T05:35:14;27.47;;;15.60;;
611;SDS011;293;53.888;11.464;2022-12-22T05:37:41;23.07;;;15.23;;
611;SDS011;293;53.888;11.464;2022-12-22T05:40:09;25.53;;;15.50;;
611;SDS011;293;53.888;11.464;2022-12-22T05:42:36;26.73;;;15.30;;
611;SDS011;293;53.888;11.464;2022-12-22T05:45:08;28.33;;;20.20;;
611;SDS011;293;53.888;11.464;2022-12-22T05:47:40;24.17;;;16.47;;
611;SDS011;293;53.888;11.464;2022-12-22T05:50:08;31.10;;;17.57;;
611;SDS011;293;53.888;11.464;2022-12-22T05:52:36;24.43;;;16.03;;
611;SDS011;293;53.888;11.464;2022-12-22T05:55:04;24.30;;;16.60;;
611;SDS011;293;53.888;11.464;2022-12-22T05:57:32;28.83;;;17.70;;
611;SDS011;293;53.888;11.464;2022-12-22T05:59:59;24.73;;;17.53;;
611;SDS011;293;53.888;11.464;2022-12-22T06:02:26;22.20;;;15.53;;
611;SDS011;293;53.888;11.464;2022-12-22T06:04:54;25.53;;;16.57;;
611;SDS011;293;53.888;11.464;2022-12-22T06:07:21;21.70;;;15.40;;
611;SDS011;293;53.888;11.464;2022-12-22T06:09:47;22.40;;;16.27;;
611;SDS011;293;53.888;11.464;2022-12-22T06:12:14;22.57;;;14.60;;
611;SDS011;293;53.888;11.464;2022-12-22T06:14:41;21.50;;;15.10;;
611;SDS011;293;53.888;11.464;2022-12-22T06:17:08;22.10;;;16.03;;
611;SDS011;293;53.888;11.464;2022-12-22T06:19:35;22.57;;;15.30;;
611;SDS011;293;53.888;11.464;2022-12-22T06:22:03;25.83;;;16.10;;
611;SDS011;293;53.888;11.464;2022-12-22T06:24:30;21.23;;;14.97;;
611;SDS011;293;53.888;11.464;2022-12-22T06:26:57;21.27;;;16.10;;
611;SDS011;293;53.888;11.464;2022-12-22T06:29:24;18.60;;;14.43;;
611;SDS011;293;53.888;11.464;2022-12-22T06:31:51;22.30;;;16.23;;
611;SDS011;293;53.888;11.464;2022-12-22T06:34:18;23.90;;;16.50;;
611;SDS011;293;53.888;11.464;2022-12-22T06:36:45;20.00;;;14.63;;
611;SDS011;293;53.888;11.464;2022-12-22T06:39:14;20.57;;;16.00;;
611;SDS011;293;53.888;11.464;2022-12-22T06:41:41;20.07;;;14.37;;
611;SDS011;293;53.888;11.464;2022-12-22T06:44:26;24.50;;;15.17;;
611;SDS011;293;53.888;11.464;2022-12-22T06:46:53;23.03;;;15.40;;
611;SDS011;293;53.888;11.464;2022-12-22T06:49:20;23.50;;;15.20;;
611;SDS011;293;53.888;11.464;2022-12-22T06:51:47;20.63;;;13.60;;
611;SDS011;293;53.888;11.464;2022-12-22T06:54:15;21.77;;;15.10;;
611;SDS011;293;53.888;11.464;2022-12-22T06:56:42;24.20;;;17.00;;
611;SDS011;293;53.888;11.464;2022-12-22T06:59:09;27.27;;;16.10;;
611;SDS011;293;53.888;11.464;2022-12-22T07:01:36;28.43;;;16.30;;
611;SDS011;293;53.888;11.464;2022-12-22T07:04:03;24.30;;;16.93;;
611;SDS011;293;53.888;11.464;2022-12-22T07:06:30;22.37;;;16.40;;
611;SDS011;293;53.888;11.464;2022-12-22T07:08:57;28.73;;;17.73;;
611;SDS011;293;53.888;11.464;2022-12-22T07:11:25;22.00;;;16.73;;
611;SDS011;293;53.888;11.464;2022-12-22T07:13:52;23.47;;;16.43;;
611;SDS011;293;53.888;11.464;2022-12-22T07:16:19;25.67;;;17.40;;
611;SDS011;293;53.888;11.464;2022-12-22T07:18:46;21.10;;;15.37;;
611;SDS011;293;53.888;11.464;2022-12-22T07:21:13;21.60;;;16.47;;
611;SDS011;293;53.888;11.464;2022-12-22T07:23:40;28.30;;;18.93;;
611;SDS011;293;53.888;11.464;2022-12-22T07:26:07;25.23;;;16.70;;
611;SDS011;293;53.888;11.464;2022-12-22T07:28:38;26.83;;;15.30;;
611;SDS011;293;53.888;11.464;2022-12-22T07:31:18;20.30;;;14.60;;
611;SDS011;293;53.888;11.464;2022-12-22T07:33:45;27.33;;;17.70;;
611;SDS011;293;53.888;11.464;2022-12-22T07:36:12;21.10;;;15.87;;
611;SDS011;293;53.888;11.464;2022-12-22T07:38:41;28.00;;;17.60;;
611;SDS011;293;53.888;11.464;2022-12-22T07:41:10;27.50;;;19.40;;
611;SDS011;293;53.888;11.464;2022-12-22T07:43:58;30.67;;;19.40;;
611;SDS011;293;53.888;11.464;2022-12-22T07:46:26;24.30;;;16.60;;
611;SDS011;293;53.888;11.464;2022-12-22T07:48:54;27.17;;;16.90;;
611;SDS011;293;53.888;11.464;2022-12-22T07:51:39;25.77;;;18.43;;
611;SDS011;293;53.888;11.464;2022-12-22T07:54:07;26.23;;;18.40;;
611;SDS011;293;53.888;11.464;2022-12-22T07:56:35;29.27;;;19.30;;
611;SDS011;293;53.888;11.464;2022-12-22T07:59:04;26.07;;;17.63;;
611;SDS011;293;53.888;11.464;2022-12-22T08:01:31;25.83;;;17.63;;
611;SDS011;293;53.888;11.464;2022-12-22T08:03:58;23.27;;;17.10;;
611;SDS011;293;53.888;11.464;2022-12-22T08:06:25;25.98;;;17.75;;
611;SDS011;293;53.888;11.464;2022-12-22T08:08:51;26.33;;;19.40;;
611;SDS011;293;53.888;11.464;2022-12-22T08:11:19;20.87;;;16.80;;
611;SDS011;293;53.888;11.464;2022-12-22T08:13:45;23.37;;;16.37;;
611;SDS011;293;53.888;11.464;2022-12-22T08:16:15;26.17;;;17.03;;
611;SDS011;293;53.888;11.464;2022-12-22T08:18:43;28.73;;;19.10;;
611;SDS011;293;53.888;11.464;2022-12-22T08:21:10;23.37;;;17.93;;
611;SDS011;293;53.888;11.464;2022-12-22T08:23:37;26.87;;;17.73;;
611;SDS011;293;53.888;11.464;2022-12-22T08:26:05;26.40;;;16.23;;
611;SDS011;293;53.888;11.464;2022-12-22T08:28:35;27.40;;;18.40;;
611;SDS011;293;53.888;11.464;2022-12-22T08:31:06;24.43;;;17.20;;
611;SDS011;293;53.888;11.464;2022-12-22T08:33:35;29.67;;;15.40;;
611;SDS011;293;53.888;11.464;2022-12-22T08:36:02;25.33;;;18.63;;
611;SDS011;293;53.888;11.464;2022-12-22T08:38:30;24.53;;;16.20;;
611;SDS011;293;53.888;11.464;2022-12-22T08:40:57;23.50;;;16.20;;
611;SDS011;293;53.888;11.464;2022-12-22T08:43:24;21.77;;;15.73;;
611;SDS011;293;53.888;11.464;2022-12-22T08:45:53;27.23;;;16.67;;
611;SDS011;293;53.888;11.464;2022-12-22T08:48:19;83.17;;;58.73;;
611;SDS011;293;53.888;11.464;2022-12-22T08:50:48;37.43;;;27.27;;
611;SDS011;293;53.888;11.464;2022-12-22T08:53:14;28.47;;;18.40;;
611;SDS011;293;53.888;11.464;2022-12-22T08:55:49;28.10;;;16.93;;
611;SDS011;293;53.888;11.464;2022-12-22T08:58:16;21.23;;;15.20;;
611;SDS011;293;53.888;11.464;2022-12-22T09:00:43;25.27;;;14.40;;
611;SDS011;293;53.888;11.464;2022-12-22T09:03:10;27.70;;;17.20;;
611;SDS011;293;53.888;11.464;2022-12-22T09:05:36;24.60;;;16.83;;
611;SDS011;293;53.888;11.464;2022-12-22T09:08:05;21.83;;;15.80;;
611;SDS011;293;53.888;11.464;2022-12-22T09:10:32;27.10;;;17.00;;
611;SDS011;293;53.888;11.464;2022-12-22T09:12:59;21.73;;;16.80;;
611;SDS011;293;53.888;11.464;2022-12-22T09:15:26;25.87;;;18.30;;
611;SDS011;293;53.888;11.464;2022-12-22T09:20:24;25.43;;;17.70;;
611;SDS011;293;53.888;11.464;2022-12-22T09:22:51;23.50;;;15.60;;
611;SDS011;293;53.888;11.464;2022-12-22T09:25:19;24.37;;;17.33;;
611;SDS011;293;53.888;11.464;2022-12-22T09:27:46;22.70;;;15.07;;
611;SDS011;293;53.888;11.464;2022-12-22T09:30:13;21.63;;;15.37;;
611;SDS011;293;53.888;11.464;2022-12-22T09:32:40;55.37;;;45.17;;
611;SDS011;293;53.888;11.464;2022-12-22T09:35:07;32.17;;;24.20;;
611;SDS011;293;53.888;11.464;2022-12-22T09:37:34;26.10;;;19.27;;
611;SDS011;293;53.888;11.464;2022-12-22T09:40:01;26.47;;;17.87;;
611;SDS011;293;53.888;11.464;2022-12-22T09:42:29;25.03;;;15.97;;
611;SDS011;293;53.888;11.464;2022-12-22T09:45:00;25.93;;;15.93;;
611;SDS011;293;53.888;11.464;2022-12-22T09:47:29;23.90;;;15.20;;
611;SDS011;293;53.888;11.464;2022-12-22T09:50:00;20.20;;;15.87;;
611;SDS011;293;53.888;11.464;2022-12-22T09:52:29;22.47;;;17.63;;
611;SDS011;293;53.888;11.464;2022-12-22T09:55:11;22.23;;;16.37;;
611;SDS011;293;53.888;11.464;2022-12-22T09:57:46;21.83;;;14.07;;
611;SDS011;293;53.888;11.464;2022-12-22T10:00:14;24.10;;;16.50;;
611;SDS011;293;53.888;11.464;2022-12-22T10:02:44;23.37;;;15.13;;
611;SDS011;293;53.888;11.464;2022-12-22T10:05:19;20.77;;;14.80;;
611;SDS011;293;53.888;11.464;2022-12-22T10:07:52;20.20;;;14.20;;
611;SDS011;293;53.888;11.464;2022-12-22T10:10:25;24.17;;;15.27;;
611;SDS011;293;53.888;11.464;2022-12-22T10:12:56;23.53;;;16.20;;
611;SDS011;293;53.888;11.464;2022-12-22T10:15:25;23.67;;;14.90;;
611;SDS011;293;53.888;11.464;2022-12-22T10:17:53;20.40;;;14.30;;
611;SDS011;293;53.888;11.464;2022-12-22T10:20:33;21.67;;;14.80;;
611;SDS011;293;53.888;11.464;2022-12-22T10:23:03;18.33;;;14.13;;
611;SDS011;293;53.888;11.464;2022-12-22T10:25:40;20.70;;;14.80;;
611;SDS011;293;53.888;11.464;2022-12-22T10:28:12;19.17;;;14.80;;
611;SDS011;293;53.888;11.464;2022-12-22T10:30:44;20.10;;;15.20;;
611;SDS011;293;53.888;11.464;2022-12-22T10:33:12;22.90;;;14.17;;
611;SDS011;293;53.888;11.464;2022-12-22T10:35:41;16.80;;;13.63;;
611;SDS011;293;53.888;11.464;2022-12-22T10:38:12;21.70;;;14.20;;
611;SDS011;293;53.888;11.464;2022-12-22T10:40:41;18.60;;;12.50;;
611;SDS011;293;53.888;11.464;2022-12-22T10:43:10;18.47;;;14.63;;
611;SDS011;293;53.888;11.464;2022-12-22T10:45:47;19.20;;;13.50;;
611;SDS011;293;53.888;11.464;2022-12-22T10:48:14;14.40;;;12.57;;
611;SDS011;293;53.888;11.464;2022-12-22T10:50:45;18.07;;;14.63;;
611;SDS011;293;53.888;11.464;2022-12-22T10:53:12;14.30;;;11.20;;
611;SDS011;293;53.888;11.464;2022-12-22T10:55:40;15.20;;;10.87;;
611;SDS011;293;53.888;11.464;2022-12-22T10:58:15;19.83;;;14.77;;
611;SDS011;293;53.888;11.464;2022-12-22T11:00:45;18.27;;;13.90;;
611;SDS011;293;53.888;11.464;2022-12-22T11:03:28;16.93;;;13.40;;
611;SDS011;293;53.888;11.464;2022-12-22T11:05:55;17.60;;;13.83;;
611;SDS011;293;53.888;11.464;2022-12-22T11:08:23;32.90;;;23.30;;
611;SDS011;293;53.888;11.464;2022-12-22T11:10:51;17.20;;;12.33;;
611;SDS011;293;53.888;11.464;2022-12-22T11:13:33;21.37;;;14.67;;
611;SDS011;293;53.888;11.464;2022-12-22T11:16:16;12.40;;;9.87;;
611;SDS011;293;53.888;11.464;2022-12-22T11:18:57;17.27;;;12.43;;
611;SDS011;293;53.888;11.464;2022-12-22T11:21:35;16.23;;;12.23;;
611;SDS011;293;53.888;11.464;2022-12-22T11:24:10;13.70;;;10.30;;
611;SDS011;293;53.888;11.464;2022-12-22T11:26:53;14.63;;;10.77;;
611;SDS011;293;53.888;11.464;2022-12-22T11:29:34;14.13;;;12.63;;
611;SDS011;293;53.888;11.464;2022-12-22T11:32:25;12.03;;;10.00;;
611;SDS011;293;53.888;11.464;2022-12-22T11:35:10;13.20;;;11.30;;
611;SDS011;293;53.888;11.464;2022-12-22T11:37:44;13.60;;;10.43;;
611;SDS011;293;53.888;11.464;2022-12-22T11:40:20;19.47;;;11.90;;
611;SDS011;293;53.888;11.464;2022-12-22T11:43:00;14.37;;;10.47;;
611;SDS011;293;53.888;11.464;2022-12-22T11:45:38;14.20;;;11.03;;
611;SDS011;293;53.888;11.464;2022-12-22T11:48:24;16.13;;;11.30;;
611;SDS011;293;53.888;11.464;2022-12-22T11:51:11;13.70;;;10.13;;
611;SDS011;293;53.888;11.464;2022-12-22T11:53:48;13.20;;;10.60;;
611;SDS011;293;53.888;11.464;2022-12-22T11:56:25;18.53;;;11.07;;
611;SDS011;293;53.888;11.464;2022-12-22T11:59:02;12.53;;;10.70;;
611;SDS011;293;53.888;11.464;2022-12-22T12:01:43;12.47;;;9.77;;
611;SDS011;293;53.888;11.464;2022-12-22T12:07:22;12.23;;;8.43;;
611;SDS011;293;53.888;11.464;2022-12-22T12:09:56;12.00;;;9.47;;
611;SDS011;293;53.888;11.464;2022-12-22T12:12:32;12.73;;;9.87;;
611;SDS011;293;53.888;11.464;2022-12-22T12:15:10;12.60;;;9.40;;
611;SDS011;293;53.888;11.464;2022-12-22T12:17:51;11.27;;;9.97;;
611;SDS011;293;53.888;11.464;2022-12-22T12:20:46;12.40;;;9.23;;
611;SDS011;293;53.888;11.464;2022-12-22T12:23:29;12.40;;;8.50;;
611;SDS011;293;53.888;11.464;2022-12-22T12:26:07;15.10;;;13.47;;
611;SDS011;293;53.888;11.464;2022-12-22T12:28:41;9.50;;;8.17;;
611;SDS011;293;53.888;11.464;2022-12-22T12:31:17;12.97;;;9.17;;
611;SDS011;293;53.888;11.464;2022-12-22T12:33:47;10.60;;;8.70;;
611;SDS011;293;53.888;11.464;2022-12-22T12:36:20;8.37;;;7.50;;
611;SDS011;293;53.888;11.464;2022-12-22T12:38:55;9.80;;;8.63;;
611;SDS011;293;53.888;11.464;2022-12-22T12:41:31;11.30;;;9.20;;
611;SDS011;293;53.888;11.464;2022-12-22T12:44:05;13.30;;;9.13;;
611;SDS011;293;53.888;11.464;2022-12-22T12:49:52;11.67;;;8.67;;
611;SDS011;293;53.888;11.464;2022-12-22T12:55:32;13.63;;;11.13;;
611;SDS011;293;53.888;11.464;2022-12-22T12:58:00;14.27;;;11.70;;
611;SDS011;293;53.888;11.464;2022-12-22T13:00:39;15.90;;;12.30;;
611;SDS011;293;53.888;11.464;2022-12-22T13:03:10;12.17;;;9.43;;
611;SDS011;293;53.888;11.464;2022-12-22T13:05:59;15.03;;;11.73;;
611;SDS011;293;53.888;11.464;2022-12-22T13:08:28;17.20;;;11.27;;
611;SDS011;293;53.888;11.464;2022-12-22T13:13:58;15.77;;;11.83;;
611;SDS011;293;53.888;11.464;2022-12-22T13:16:26;18.50;;;13.40;;
611;SDS011;293;53.888;11.464;2022-12-22T13:18:55;14.77;;;11.40;;
611;SDS011;293;53.888;11.464;2022-12-22T13:21:24;19.73;;;12.90;;
611;SDS011;293;53.888;11.464;2022-12-22T13:23:58;17.53;;;13.00;;
611;SDS011;293;53.888;11.464;2022-12-22T13:26:30;15.27;;;11.80;;
611;SDS011;293;53.888;11.464;2022-12-22T13:28:59;18.50;;;13.07;;
611;SDS011;293;53.888;11.464;2022-12-22T13:31:34;18.73;;;12.97;;
611;SDS011;293;53.888;11.464;2022-12-22T13:34:06;13.40;;;11.73;;
611;SDS011;293;53.888;11.464;2022-12-22T13:36:47;17.07;;;13.17;;
611;SDS011;293;53.888;11.464;2022-12-22T13:39:16;15.80;;;13.20;;
611;SDS011;293;53.888;11.464;2022-12-22T13:41:43;16.70;;;11.13;;
611;SDS011;293;53.888;11.464;2022-12-22T13:44:12;16.37;;;11.70;;
611;SDS011;293;53.888;11.464;2022-12-22T13:46:41;16.77;;;11.60;;
611;SDS011;293;53.888;11.464;2022-12-22T13:49:11;16.23;;;10.97;;
611;SDS011;293;53.888;11.464;2022-12-22T13:51:41;13.93;;;10.90;;
611;SDS011;293;53.888;11.464;2022-12-22T13:54:10;14.27;;;11.67;;
611;SDS011;293;53.888;11.464;2022-12-22T13:56:43;15.30;;;11.37;;
611;SDS011;293;53.888;11.464;2022-12-22T13:59:20;15.83;;;11.60;;
611;SDS011;293;53.888;11.464;2022-12-22T14:01:56;16.23;;;12.03;;
611;SDS011;293;53.888;11.464;2022-12-22T14:04:25;15.23;;;12.17;;
611;SDS011;293;53.888;11.464;2022-12-22T14:06:52;16.17;;;13.07;;
611;SDS011;293;53.888;11.464;2022-12-22T14:09:20;16.17;;;12.83;;
611;SDS011;293;53.888;11.464;2022-12-22T14:11:50;16.43;;;10.33;;
611;SDS011;293;53.888;11.464;2022-12-22T14:14:22;18.57;;;11.93;;
611;SDS011;293;53.888;11.464;2022-12-22T14:16:52;14.80;;;11.60;;
611;SDS011;293;53.888;11.464;2022-12-22T14:19:21;17.50;;;12.40;;
611;SDS011;293;53.888;11.464;2022-12-22T14:21:51;19.07;;;15.07;;
611;SDS011;293;53.888;11.464;2022-12-22T14:24:27;19.83;;;14.73;;
611;SDS011;293;53.888;11.464;2022-12-22T14:27:00;15.73;;;11.90;;
611;SDS011;293;53.888;11.464;2022-12-22T14:29:27;14.70;;;12.17;;
611;SDS011;293;53.888;11.464;2022-12-22T14:31:56;16.43;;;12.33;;
611;SDS011;293;53.888;11.464;2022-12-22T14:34:26;14.90;;;11.90;;
611;SDS011;293;53.888;11.464;2022-12-22T14:36:54;16.90;;;12.53;;
611;SDS011;293;53.888;11.464;2022-12-22T14:39:22;15.67;;;11.70;;
611;SDS011;293;53.888;11.464;2022-12-22T14:41:51;16.83;;;12.10;;
611;SDS011;293;53.888;11.464;2022-12-22T14:44:21;18.73;;;14.03;;
611;SDS011;293;53.888;11.464;2022-12-22T14:49:45;18.50;;;14.00;;
611;SDS011;293;53.888;11.464;2022-12-22T14:52:16;16.63;;;10.67;;
611;SDS011;293;53.888;11.464;2022-12-22T14:54:47;18.00;;;13.10;;
611;SDS011;293;53.888;11.464;2022-12-22T14:57:17;15.77;;;12.10;;
611;SDS011;293;53.888;11.464;2022-12-22T15:00:01;16.30;;;11.97;;
611;SDS011;293;53.888;11.464;2022-12-22T15:02:31;19.10;;;13.57;;
611;SDS011;293;53.888;11.464;2022-12-22T15:05:11;16.97;;;12.97;;
611;SDS011;293;53.888;11.464;2022-12-22T15:07:42;18.57;;;13.30;;
611;SDS011;293;53.888;11.464;2022-12-22T15:10:13;19.97;;;13.50;;
611;SDS011;293;53.888;11.464;2022-12-22T15:12:40;20.30;;;13.63;;
611;SDS011;293;53.888;11.464;2022-12-22T15:15:12;18.00;;;13.57;;
611;SDS011;293;53.888;11.464;2022-12-22T15:17:42;18.43;;;13.67;;
611;SDS011;293;53.888;11.464;2022-12-22T15:20:12;20.50;;;13.93;;
611;SDS011;293;53.888;11.464;2022-12-22T15:22:41;20.10;;;14.00;;
611;SDS011;293;53.888;11.464;2022-12-22T15:25:11;19.83;;;12.90;;
611;SDS011;293;53.888;11.464;2022-12-22T15:27:38;22.40;;;14.47;;
611;SDS011;293;53.888;11.464;2022-12-22T15:30:06;19.57;;;12.80;;
611;SDS011;293;53.888;11.464;2022-12-22T15:32:35;23.13;;;14.90;;
611;SDS011;293;53.888;11.464;2022-12-22T15:35:04;23.33;;;14.47;;
611;SDS011;293;53.888;11.464;2022-12-22T15:37:40;22.23;;;12.30;;
611;SDS011;293;53.888;11.464;2022-12-22T15:40:11;23.33;;;12.77;;
611;SDS011;293;53.888;11.464;2022-12-22T15:42:42;15.00;;;10.87;;
611;SDS011;293;53.888;11.464;2022-12-22T15:45:10;22.63;;;11.30;;
611;SDS011;293;53.888;11.464;2022-12-22T15:47:38;19.20;;;11.20;;
611;SDS011;293;53.888;11.464;2022-12-22T15:50:08;16.90;;;9.40;;
611;SDS011;293;53.888;11.464;2022-12-22T15:52:40;18.20;;;10.70;;
611;SDS011;293;53.888;11.464;2022-12-22T15:55:12;12.73;;;9.10;;
611;SDS011;293;53.888;11.464;2022-12-22T15:57:40;15.20;;;9.73;;
611;SDS011;293;53.888;11.464;2022-12-22T16:00:08;15.57;;;9.63;;